sensor_id;sensor_type;location;lat;lon;timestamp;temperature;humidity
52849;DHT22;38714;53.180;5.812;2023-05-10T00:00:32;12.90;99.90
52849;DHT22;38714;53.180;5.812;2023-05-10T00:02:58;12.90;99.90
52849;DHT22;38714;53.180;5.812;2023-05-10T00:05:23;12.90;99.90
52849;DHT22;38714;53.180;5.812;2023-05-10T00:07:49;12.90;99.90
52849;DHT22;38714;53.180;5.812;2023-05-10T00:10:14;12.80;99.90
52849;DHT22;38714;53.180;5.812;2023-05-10T00:12:40;12.80;99.90
52849;DHT22;38714;53.180;5.812;2023-05-10T00:15:06;12.80;99.90
52849;DHT22;38714;53.180;5.812;2023-05-10T00:17:32;12.80;99.90
52849;DHT22;38714;53.180;5.812;2023-05-10T00:19:58;12.80;99.90
52849;DHT22;38714;53.180;5.812;2023-05-10T00:22:23;12.70;99.90
52849;DHT22;38714;53.180;5.812;2023-05-10T00:24:49;12.70;99.90
52849;DHT22;38714;53.180;5.812;2023-05-10T00:27:14;12.70;99.90
52849;DHT22;38714;53.180;5.812;2023-05-10T00:29:40;12.70;99.90
52849;DHT22;38714;53.180;5.812;2023-05-10T00:32:06;12.70;99.90
52849;DHT22;38714;53.180;5.812;2023-05-10T00:34:31;12.70;99.90
52849;DHT22;38714;53.180;5.812;2023-05-10T00:36:57;12.60;99.90
52849;DHT22;38714;53.180;5.812;2023-05-10T00:39:23;12.70;99.90
52849;DHT22;38714;53.180;5.812;2023-05-10T00:41:48;12.70;99.90
52849;DHT22;38714;53.180;5.812;2023-05-10T00:44:14;12.60;99.90
52849;DHT22;38714;53.180;5.812;2023-05-10T00:46:40;12.60;99.90
52849;DHT22;38714;53.180;5.812;2023-05-10T00:49:06;12.70;99.90
52849;DHT22;38714;53.180;5.812;2023-05-10T00:51:33;12.60;99.90
52849;DHT22;38714;53.180;5.812;2023-05-10T00:53:59;12.60;99.90
52849;DHT22;38714;53.180;5.812;2023-05-10T00:56:25;12.60;99.90
52849;DHT22;38714;53.180;5.812;2023-05-10T00:58:51;12.60;99.90
52849;DHT22;38714;53.180;5.812;2023-05-10T01:01:16;12.50;99.90
52849;DHT22;38714;53.180;5.812;2023-05-10T01:03:42;12.60;99.90
52849;DHT22;38714;53.180;5.812;2023-05-10T01:06:08;12.60;99.90
52849;DHT22;38714;53.180;5.812;2023-05-10T01:08:35;12.60;99.90
52849;DHT22;38714;53.180;5.812;2023-05-10T01:11:01;12.60;99.90
52849;DHT22;38714;53.180;5.812;2023-05-10T01:13:33;12.50;99.90
52849;DHT22;38714;53.180;5.812;2023-05-10T01:16:00;12.50;99.90
52849;DHT22;38714;53.180;5.812;2023-05-10T01:18:40;12.50;99.90
52849;DHT22;38714;53.180;5.812;2023-05-10T01:26:52;12.50;99.90
52849;DHT22;38714;53.180;5.812;2023-05-10T01:35:06;12.50;99.90
52849;DHT22;38714;53.180;5.812;2023-05-10T01:42:49;12.40;99.90
52849;DHT22;38714;53.180;5.812;2023-05-10T01:45:28;12.50;99.90
52849;DHT22;38714;53.180;5.812;2023-05-10T01:48:10;12.40;99.90
52849;DHT22;38714;53.180;5.812;2023-05-10T01:50:43;12.40;99.90
52849;DHT22;38714;53.180;5.812;2023-05-10T01:53:10;12.40;99.90
52849;DHT22;38714;53.180;5.812;2023-05-10T01:55:45;12.40;99.90
52849;DHT22;38714;53.180;5.812;2023-05-10T01:58:18;12.40;99.90
52849;DHT22;38714;53.180;5.812;2023-05-10T02:00:46;12.40;99.90
52849;DHT22;38714;53.180;5.812;2023-05-10T02:03:13;12.50;99.90
52849;DHT22;38714;53.180;5.812;2023-05-10T02:05:41;12.50;99.90
52849;DHT22;38714;53.180;5.812;2023-05-10T02:08:10;12.50;99.90
52849;DHT22;38714;53.180;5.812;2023-05-10T02:10:37;12.50;99.90
52849;DHT22;38714;53.180;5.812;2023-05-10T02:13:05;12.40;99.90
52849;DHT22;38714;53.180;5.812;2023-05-10T02:15:32;12.40;99.90
52849;DHT22;38714;53.180;5.812;2023-05-10T02:18:00;12.40;99.90
52849;DHT22;38714;53.180;5.812;2023-05-10T02:20:26;12.40;99.90
52849;DHT22;38714;53.180;5.812;2023-05-10T02:22:54;12.40;99.90
52849;DHT22;38714;53.180;5.812;2023-05-10T02:25:22;12.40;99.90
52849;DHT22;38714;53.180;5.812;2023-05-10T02:27:48;12.40;99.90
52849;DHT22;38714;53.180;5.812;2023-05-10T02:30:16;12.40;99.90
52849;DHT22;38714;53.180;5.812;2023-05-10T02:32:44;12.40;99.90
52849;DHT22;38714;53.180;5.812;2023-05-10T02:35:10;12.40;99.90
52849;DHT22;38714;53.180;5.812;2023-05-10T02:37:37;12.40;99.90
52849;DHT22;38714;53.180;5.812;2023-05-10T02:40:05;12.40;99.90
52849;DHT22;38714;53.180;5.812;2023-05-10T02:42:33;12.40;99.90
52849;DHT22;38714;53.180;5.812;2023-05-10T02:45:01;12.50;99.90
52849;DHT22;38714;53.180;5.812;2023-05-10T02:47:28;12.40;99.90
52849;DHT22;38714;53.180;5.812;2023-05-10T02:49:54;12.40;99.90
52849;DHT22;38714;53.180;5.812;2023-05-10T02:52:27;12.40;99.90
52849;DHT22;38714;53.180;5.812;2023-05-10T02:54:55;12.40;99.90
52849;DHT22;38714;53.180;5.812;2023-05-10T02:57:32;12.40;99.90
52849;DHT22;38714;53.180;5.812;2023-05-10T02:59:59;12.30;99.90
52849;DHT22;38714;53.180;5.812;2023-05-10T03:02:25;12.40;99.90
52849;DHT22;38714;53.180;5.812;2023-05-10T03:04:51;12.30;99.90
52849;DHT22;38714;53.180;5.812;2023-05-10T03:07:17;12.30;99.90
52849;DHT22;38714;53.180;5.812;2023-05-10T03:09:47;12.40;99.90
52849;DHT22;38714;53.180;5.812;2023-05-10T03:15:11;12.30;99.90
52849;DHT22;38714;53.180;5.812;2023-05-10T03:18:07;12.30;99.90
52849;DHT22;38714;53.180;5.812;2023-05-10T03:20:47;12.30;99.90
52849;DHT22;38714;53.180;5.812;2023-05-10T03:25:47;12.20;99.90
52849;DHT22;38714;53.180;5.812;2023-05-10T03:28:14;12.20;99.90
52849;DHT22;38714;53.180;5.812;2023-05-10T03:30:41;12.30;99.90
52849;DHT22;38714;53.180;5.812;2023-05-10T03:33:08;12.30;99.90
52849;DHT22;38714;53.180;5.812;2023-05-10T03:35:34;12.20;99.90
52849;DHT22;38714;53.180;5.812;2023-05-10T03:38:00;12.20;99.90
52849;DHT22;38714;53.180;5.812;2023-05-10T03:40:26;12.20;99.90
52849;DHT22;38714;53.180;5.812;2023-05-10T03:42:54;12.20;99.90
52849;DHT22;38714;53.180;5.812;2023-05-10T03:45:20;12.20;99.90
52849;DHT22;38714;53.180;5.812;2023-05-10T03:47:45;12.20;99.90
52849;DHT22;38714;53.180;5.812;2023-05-10T03:50:11;12.20;99.90
52849;DHT22;38714;53.180;5.812;2023-05-10T03:52:36;12.20;99.90
52849;DHT22;38714;53.180;5.812;2023-05-10T03:55:05;12.20;99.90
52849;DHT22;38714;53.180;5.812;2023-05-10T03:57:30;12.20;99.90
52849;DHT22;38714;53.180;5.812;2023-05-10T03:59:56;12.20;99.90
52849;DHT22;38714;53.180;5.812;2023-05-10T04:02:21;12.20;99.90
52849;DHT22;38714;53.180;5.812;2023-05-10T04:04:47;12.20;99.90
52849;DHT22;38714;53.180;5.812;2023-05-10T04:07:13;12.20;99.90
52849;DHT22;38714;53.180;5.812;2023-05-10T04:09:39;12.20;99.90
52849;DHT22;38714;53.180;5.812;2023-05-10T04:12:05;12.20;99.90
52849;DHT22;38714;53.180;5.812;2023-05-10T04:14:31;12.20;99.90
52849;DHT22;38714;53.180;5.812;2023-05-10T04:16:56;12.10;99.90
52849;DHT22;38714;53.180;5.812;2023-05-10T04:19:22;12.10;99.90
52849;DHT22;38714;53.180;5.812;2023-05-10T04:21:47;12.10;99.90
52849;DHT22;38714;53.180;5.812;2023-05-10T04:24:13;12.10;99.90
52849;DHT22;38714;53.180;5.812;2023-05-10T04:26:39;12.10;99.90
52849;DHT22;38714;53.180;5.812;2023-05-10T04:29:04;12.10;99.90
52849;DHT22;38714;53.180;5.812;2023-05-10T04:31:30;12.10;99.90
52849;DHT22;38714;53.180;5.812;2023-05-10T04:33:56;12.10;99.90
52849;DHT22;38714;53.180;5.812;2023-05-10T04:36:21;12.10;99.90
52849;DHT22;38714;53.180;5.812;2023-05-10T04:38:47;12.10;99.90
52849;DHT22;38714;53.180;5.812;2023-05-10T04:41:12;12.10;99.90
52849;DHT22;38714;53.180;5.812;2023-05-10T04:43:38;12.00;99.90
52849;DHT22;38714;53.180;5.812;2023-05-10T04:46:04;12.00;99.90
52849;DHT22;38714;53.180;5.812;2023-05-10T04:48:30;12.00;99.90
52849;DHT22;38714;53.180;5.812;2023-05-10T04:50:56;12.00;99.90
52849;DHT22;38714;53.180;5.812;2023-05-10T04:53:22;12.00;99.90
52849;DHT22;38714;53.180;5.812;2023-05-10T04:55:47;12.00;99.90
52849;DHT22;38714;53.180;5.812;2023-05-10T04:58:14;12.00;99.90
52849;DHT22;38714;53.180;5.812;2023-05-10T05:00:39;12.00;99.90
52849;DHT22;38714;53.180;5.812;2023-05-10T05:03:05;12.00;99.90
52849;DHT22;38714;53.180;5.812;2023-05-10T05:05:31;12.00;99.90
52849;DHT22;38714;53.180;5.812;2023-05-10T05:07:57;12.00;99.90
52849;DHT22;38714;53.180;5.812;2023-05-10T05:10:22;12.00;99.90
52849;DHT22;38714;53.180;5.812;2023-05-10T05:12:48;12.00;99.90
52849;DHT22;38714;53.180;5.812;2023-05-10T05:15:13;12.00;99.90
52849;DHT22;38714;53.180;5.812;2023-05-10T05:17:40;12.00;99.90
52849;DHT22;38714;53.180;5.812;2023-05-10T05:20:06;12.00;99.90
52849;DHT22;38714;53.180;5.812;2023-05-10T05:22:32;12.00;99.90
52849;DHT22;38714;53.180;5.812;2023-05-10T05:24:58;12.00;99.90
52849;DHT22;38714;53.180;5.812;2023-05-10T05:27:24;12.00;99.90
52849;DHT22;38714;53.180;5.812;2023-05-10T05:29:54;11.90;99.90
52849;DHT22;38714;53.180;5.812;2023-05-10T05:32:20;12.00;99.90
52849;DHT22;38714;53.180;5.812;2023-05-10T05:34:47;12.00;99.90
52849;DHT22;38714;53.180;5.812;2023-05-10T05:37:17;12.00;99.90
52849;DHT22;38714;53.180;5.812;2023-05-10T05:39:44;12.00;99.90
52849;DHT22;38714;53.180;5.812;2023-05-10T05:42:10;12.00;99.90
52849;DHT22;38714;53.180;5.812;2023-05-10T05:44:35;12.10;99.90
52849;DHT22;38714;53.180;5.812;2023-05-10T05:47:01;12.10;99.90
52849;DHT22;38714;53.180;5.812;2023-05-10T05:49:27;12.10;99.90
52849;DHT22;38714;53.180;5.812;2023-05-10T05:51:52;12.10;99.90
52849;DHT22;38714;53.180;5.812;2023-05-10T05:54:18;12.10;99.90
52849;DHT22;38714;53.180;5.812;2023-05-10T05:56:43;12.00;99.90
52849;DHT22;38714;53.180;5.812;2023-05-10T05:59:10;12.00;99.90
52849;DHT22;38714;53.180;5.812;2023-05-10T06:01:35;12.10;99.90
52849;DHT22;38714;53.180;5.812;2023-05-10T06:04:01;12.10;99.90
52849;DHT22;38714;53.180;5.812;2023-05-10T06:06:26;12.10;99.90
52849;DHT22;38714;53.180;5.812;2023-05-10T06:08:53;12.10;99.90
52849;DHT22;38714;53.180;5.812;2023-05-10T06:11:18;12.10;99.90
52849;DHT22;38714;53.180;5.812;2023-05-10T06:13:44;12.20;99.90
52849;DHT22;38714;53.180;5.812;2023-05-10T06:16:09;12.20;99.90
52849;DHT22;38714;53.180;5.812;2023-05-10T06:18:35;12.20;99.90
52849;DHT22;38714;53.180;5.812;2023-05-10T06:21:01;12.20;99.90
52849;DHT22;38714;53.180;5.812;2023-05-10T06:23:27;12.20;99.90
52849;DHT22;38714;53.180;5.812;2023-05-10T06:25:52;12.20;99.90
52849;DHT22;38714;53.180;5.812;2023-05-10T06:28:18;12.10;99.90
52849;DHT22;38714;53.180;5.812;2023-05-10T06:30:43;12.10;99.90
52849;DHT22;38714;53.180;5.812;2023-05-10T06:33:09;12.10;99.90
52849;DHT22;38714;53.180;5.812;2023-05-10T06:35:35;12.10;99.90
52849;DHT22;38714;53.180;5.812;2023-05-10T06:38:02;12.20;99.90
52849;DHT22;38714;53.180;5.812;2023-05-10T06:40:27;12.20;99.90
52849;DHT22;38714;53.180;5.812;2023-05-10T06:42:53;12.20;99.90
52849;DHT22;38714;53.180;5.812;2023-05-10T06:45:19;12.20;99.90
52849;DHT22;38714;53.180;5.812;2023-05-10T06:47:44;12.20;99.90
52849;DHT22;38714;53.180;5.812;2023-05-10T06:50:11;12.20;99.90
52849;DHT22;38714;53.180;5.812;2023-05-10T06:52:37;12.30;99.90
52849;DHT22;38714;53.180;5.812;2023-05-10T06:55:06;12.30;99.90
52849;DHT22;38714;53.180;5.812;2023-05-10T06:57:32;12.30;99.90
52849;DHT22;38714;53.180;5.812;2023-05-10T07:00:01;12.30;99.90
52849;DHT22;38714;53.180;5.812;2023-05-10T07:02:29;12.30;99.90
52849;DHT22;38714;53.180;5.812;2023-05-10T07:04:54;12.30;99.90
52849;DHT22;38714;53.180;5.812;2023-05-10T07:07:20;12.30;99.90
52849;DHT22;38714;53.180;5.812;2023-05-10T07:09:46;12.30;99.90
52849;DHT22;38714;53.180;5.812;2023-05-10T07:12:12;12.30;99.90
52849;DHT22;38714;53.180;5.812;2023-05-10T07:14:37;12.30;99.90
52849;DHT22;38714;53.180;5.812;2023-05-10T07:17:03;12.30;99.90
52849;DHT22;38714;53.180;5.812;2023-05-10T07:19:29;12.30;99.90
52849;DHT22;38714;53.180;5.812;2023-05-10T07:21:55;12.30;99.90
52849;DHT22;38714;53.180;5.812;2023-05-10T07:24:20;12.30;99.90
52849;DHT22;38714;53.180;5.812;2023-05-10T07:26:46;12.40;99.90
52849;DHT22;38714;53.180;5.812;2023-05-10T07:29:12;12.40;99.90
52849;DHT22;38714;53.180;5.812;2023-05-10T07:31:37;12.40;99.90
52849;DHT22;38714;53.180;5.812;2023-05-10T07:34:03;12.40;99.90
52849;DHT22;38714;53.180;5.812;2023-05-10T07:36:29;12.40;99.90
52849;DHT22;38714;53.180;5.812;2023-05-10T07:38:54;12.40;99.90
52849;DHT22;38714;53.180;5.812;2023-05-10T07:41:20;12.40;99.90
52849;DHT22;38714;53.180;5.812;2023-05-10T07:43:46;12.50;99.90
52849;DHT22;38714;53.180;5.812;2023-05-10T07:46:12;12.50;99.90
52849;DHT22;38714;53.180;5.812;2023-05-10T07:48:37;12.50;99.90
52849;DHT22;38714;53.180;5.812;2023-05-10T07:51:03;12.60;99.90
52849;DHT22;38714;53.180;5.812;2023-05-10T07:53:28;12.60;99.90
52849;DHT22;38714;53.180;5.812;2023-05-10T07:55:57;12.70;99.90
52849;DHT22;38714;53.180;5.812;2023-05-10T07:58:23;12.70;99.90
52849;DHT22;38714;53.180;5.812;2023-05-10T08:00:49;12.70;99.90
52849;DHT22;38714;53.180;5.812;2023-05-10T08:03:15;12.80;99.90
52849;DHT22;38714;53.180;5.812;2023-05-10T08:05:40;12.80;99.90
52849;DHT22;38714;53.180;5.812;2023-05-10T08:08:06;12.90;99.90
52849;DHT22;38714;53.180;5.812;2023-05-10T08:10:32;12.90;99.90
52849;DHT22;38714;53.180;5.812;2023-05-10T08:12:57;12.90;99.90
52849;DHT22;38714;53.180;5.812;2023-05-10T08:15:24;12.90;99.90
52849;DHT22;38714;53.180;5.812;2023-05-10T08:17:51;12.90;99.90
52849;DHT22;38714;53.180;5.812;2023-05-10T08:20:17;12.90;99.90
52849;DHT22;38714;53.180;5.812;2023-05-10T08:22:45;12.90;99.90
52849;DHT22;38714;53.180;5.812;2023-05-10T08:25:10;12.90;99.90
52849;DHT22;38714;53.180;5.812;2023-05-10T08:27:36;13.00;99.90
52849;DHT22;38714;53.180;5.812;2023-05-10T08:30:01;13.00;99.90
52849;DHT22;38714;53.180;5.812;2023-05-10T08:32:27;13.00;99.90
52849;DHT22;38714;53.180;5.812;2023-05-10T08:34:52;13.00;99.90
52849;DHT22;38714;53.180;5.812;2023-05-10T08:37:18;13.00;99.90
52849;DHT22;38714;53.180;5.812;2023-05-10T08:39:43;13.00;99.90
52849;DHT22;38714;53.180;5.812;2023-05-10T08:42:11;13.00;99.90
52849;DHT22;38714;53.180;5.812;2023-05-10T08:44:37;13.00;99.90
52849;DHT22;38714;53.180;5.812;2023-05-10T08:47:05;13.10;99.90
52849;DHT22;38714;53.180;5.812;2023-05-10T08:49:32;13.10;99.90
52849;DHT22;38714;53.180;5.812;2023-05-10T08:52:01;13.10;99.90
52849;DHT22;38714;53.180;5.812;2023-05-10T08:54:28;13.10;99.90
52849;DHT22;38714;53.180;5.812;2023-05-10T08:56:54;13.20;99.90
52849;DHT22;38714;53.180;5.812;2023-05-10T08:59:19;13.20;99.90
52849;DHT22;38714;53.180;5.812;2023-05-10T09:01:47;13.20;99.90
52849;DHT22;38714;53.180;5.812;2023-05-10T09:04:14;13.20;99.90
52849;DHT22;38714;53.180;5.812;2023-05-10T09:06:40;13.30;99.90
52849;DHT22;38714;53.180;5.812;2023-05-10T09:09:06;13.30;99.90
52849;DHT22;38714;53.180;5.812;2023-05-10T09:11:32;13.30;99.90
52849;DHT22;38714;53.180;5.812;2023-05-10T09:13:58;13.40;99.90
52849;DHT22;38714;53.180;5.812;2023-05-10T09:16:23;13.40;99.90
52849;DHT22;38714;53.180;5.812;2023-05-10T09:18:49;13.30;99.90
52849;DHT22;38714;53.180;5.812;2023-05-10T09:21:15;13.40;99.90
52849;DHT22;38714;53.180;5.812;2023-05-10T09:23:44;13.40;99.90
52849;DHT22;38714;53.180;5.812;2023-05-10T09:26:12;13.40;99.90
52849;DHT22;38714;53.180;5.812;2023-05-10T09:29:10;13.40;99.90
52849;DHT22;38714;53.180;5.812;2023-05-10T09:34:16;13.40;99.90
52849;DHT22;38714;53.180;5.812;2023-05-10T09:37:02;13.50;99.90
52849;DHT22;38714;53.180;5.812;2023-05-10T09:39:37;13.50;99.90
52849;DHT22;38714;53.180;5.812;2023-05-10T09:42:05;13.50;99.90
52849;DHT22;38714;53.180;5.812;2023-05-10T09:44:32;13.50;99.90
52849;DHT22;38714;53.180;5.812;2023-05-10T09:46:58;13.50;99.90
52849;DHT22;38714;53.180;5.812;2023-05-10T09:49:24;13.50;99.90
52849;DHT22;38714;53.180;5.812;2023-05-10T09:52:07;13.60;99.90
52849;DHT22;38714;53.180;5.812;2023-05-10T09:54:33;13.60;99.90
52849;DHT22;38714;53.180;5.812;2023-05-10T09:56:59;13.60;99.90
52849;DHT22;38714;53.180;5.812;2023-05-10T09:59:26;13.70;99.90
52849;DHT22;38714;53.180;5.812;2023-05-10T10:02:00;13.70;99.90
52849;DHT22;38714;53.180;5.812;2023-05-10T10:04:26;13.60;99.90
52849;DHT22;38714;53.180;5.812;2023-05-10T10:07:00;13.70;99.90
52849;DHT22;38714;53.180;5.812;2023-05-10T10:09:26;13.70;99.90
52849;DHT22;38714;53.180;5.812;2023-05-10T10:11:52;13.70;99.90
52849;DHT22;38714;53.180;5.812;2023-05-10T10:14:19;13.70;99.90
52849;DHT22;38714;53.180;5.812;2023-05-10T10:16:46;13.80;99.90
52849;DHT22;38714;53.180;5.812;2023-05-10T10:19:12;13.80;99.90
52849;DHT22;38714;53.180;5.812;2023-05-10T10:21:37;13.80;99.90
52849;DHT22;38714;53.180;5.812;2023-05-10T10:24:03;13.80;99.90
52849;DHT22;38714;53.180;5.812;2023-05-10T10:26:33;13.90;99.90
52849;DHT22;38714;53.180;5.812;2023-05-10T10:31:45;14.00;99.90
52849;DHT22;38714;53.180;5.812;2023-05-10T10:34:25;14.00;99.90
52849;DHT22;38714;53.180;5.812;2023-05-10T10:36:52;14.10;99.90
52849;DHT22;38714;53.180;5.812;2023-05-10T10:39:18;14.10;99.90
52849;DHT22;38714;53.180;5.812;2023-05-10T10:41:53;14.20;99.90
52849;DHT22;38714;53.180;5.812;2023-05-10T10:50:12;14.30;99.90
52849;DHT22;38714;53.180;5.812;2023-05-10T10:52:45;14.40;99.90
52849;DHT22;38714;53.180;5.812;2023-05-10T10:55:14;14.40;99.90
52849;DHT22;38714;53.180;5.812;2023-05-10T10:57:53;14.40;99.90
52849;DHT22;38714;53.180;5.812;2023-05-10T11:00:35;14.50;99.90
52849;DHT22;38714;53.180;5.812;2023-05-10T11:03:09;14.50;99.90
52849;DHT22;38714;53.180;5.812;2023-05-10T11:05:42;14.50;99.90
52849;DHT22;38714;53.180;5.812;2023-05-10T11:08:33;14.50;99.90
52849;DHT22;38714;53.180;5.812;2023-05-10T11:13:43;14.50;99.90
52849;DHT22;38714;53.180;5.812;2023-05-10T11:18:41;14.40;99.90
52849;DHT22;38714;53.180;5.812;2023-05-10T11:21:16;14.50;99.90
52849;DHT22;38714;53.180;5.812;2023-05-10T11:23:53;14.50;99.90
52849;DHT22;38714;53.180;5.812;2023-05-10T11:26:26;14.50;99.90
52849;DHT22;38714;53.180;5.812;2023-05-10T11:28:55;14.50;99.90
52849;DHT22;38714;53.180;5.812;2023-05-10T11:31:21;14.60;99.90
52849;DHT22;38714;53.180;5.812;2023-05-10T11:33:52;14.60;99.90
52849;DHT22;38714;53.180;5.812;2023-05-10T11:38:45;14.60;99.90
52849;DHT22;38714;53.180;5.812;2023-05-10T11:41:12;14.60;99.90
52849;DHT22;38714;53.180;5.812;2023-05-10T11:43:42;14.70;99.90
52849;DHT22;38714;53.180;5.812;2023-05-10T11:46:12;14.70;99.90
52849;DHT22;38714;53.180;5.812;2023-05-10T11:48:41;14.70;99.90
52849;DHT22;38714;53.180;5.812;2023-05-10T11:51:08;14.80;99.90
52849;DHT22;38714;53.180;5.812;2023-05-10T11:53:34;14.80;99.90
52849;DHT22;38714;53.180;5.812;2023-05-10T11:56:09;14.90;99.90
52849;DHT22;38714;53.180;5.812;2023-05-10T11:58:36;15.00;99.90
52849;DHT22;38714;53.180;5.812;2023-05-10T12:01:03;15.10;99.90
52849;DHT22;38714;53.180;5.812;2023-05-10T12:03:30;15.10;99.90
52849;DHT22;38714;53.180;5.812;2023-05-10T12:05:56;15.10;99.90
52849;DHT22;38714;53.180;5.812;2023-05-10T12:08:24;15.20;99.90
52849;DHT22;38714;53.180;5.812;2023-05-10T12:10:50;15.20;99.90
52849;DHT22;38714;53.180;5.812;2023-05-10T12:13:16;15.20;99.90
52849;DHT22;38714;53.180;5.812;2023-05-10T12:15:43;15.20;99.90
52849;DHT22;38714;53.180;5.812;2023-05-10T12:18:09;15.30;99.90
52849;DHT22;38714;53.180;5.812;2023-05-10T12:20:36;15.30;99.90
52849;DHT22;38714;53.180;5.812;2023-05-10T12:23:02;15.40;99.90
52849;DHT22;38714;53.180;5.812;2023-05-10T12:25:33;15.40;99.90
52849;DHT22;38714;53.180;5.812;2023-05-10T12:28:00;15.50;99.90
52849;DHT22;38714;53.180;5.812;2023-05-10T12:30:29;15.50;99.90
52849;DHT22;38714;53.180;5.812;2023-05-10T12:33:11;15.50;99.90
52849;DHT22;38714;53.180;5.812;2023-05-10T12:36:03;15.50;99.90
52849;DHT22;38714;53.180;5.812;2023-05-10T12:38:33;15.50;99.90
52849;DHT22;38714;53.180;5.812;2023-05-10T12:41:00;15.60;99.90
52849;DHT22;38714;53.180;5.812;2023-05-10T12:43:26;15.60;99.90
52849;DHT22;38714;53.180;5.812;2023-05-10T12:45:52;15.70;99.90
52849;DHT22;38714;53.180;5.812;2023-05-10T12:48:18;15.80;99.90
52849;DHT22;38714;53.180;5.812;2023-05-10T12:50:44;15.80;99.90
52849;DHT22;38714;53.180;5.812;2023-05-10T12:53:09;15.80;99.90
52849;DHT22;38714;53.180;5.812;2023-05-10T12:55:35;15.80;99.90
52849;DHT22;38714;53.180;5.812;2023-05-10T12:58:01;15.80;99.90
52849;DHT22;38714;53.180;5.812;2023-05-10T13:00:26;15.70;99.90
52849;DHT22;38714;53.180;5.812;2023-05-10T13:02:52;15.70;99.90
52849;DHT22;38714;53.180;5.812;2023-05-10T13:05:18;15.70;99.90
52849;DHT22;38714;53.180;5.812;2023-05-10T13:07:44;15.80;99.90
52849;DHT22;38714;53.180;5.812;2023-05-10T13:10:10;15.80;99.90
52849;DHT22;38714;53.180;5.812;2023-05-10T13:12:35;15.80;99.90
52849;DHT22;38714;53.180;5.812;2023-05-10T13:15:02;15.80;99.90
52849;DHT22;38714;53.180;5.812;2023-05-10T13:17:28;15.80;99.90
52849;DHT22;38714;53.180;5.812;2023-05-10T13:19:54;15.80;99.90
52849;DHT22;38714;53.180;5.812;2023-05-10T13:22:20;15.90;99.90
52849;DHT22;38714;53.180;5.812;2023-05-10T13:24:45;15.80;99.90
52849;DHT22;38714;53.180;5.812;2023-05-10T13:27:11;15.90;99.90
52849;DHT22;38714;53.180;5.812;2023-05-10T13:29:37;15.80;99.90
52849;DHT22;38714;53.180;5.812;2023-05-10T13:32:02;15.80;99.90
52849;DHT22;38714;53.180;5.812;2023-05-10T13:34:28;15.80;99.90
52849;DHT22;38714;53.180;5.812;2023-05-10T13:36:54;15.80;99.90
52849;DHT22;38714;53.180;5.812;2023-05-10T13:39:21;15.80;99.90
52849;DHT22;38714;53.180;5.812;2023-05-10T13:41:46;15.80;99.90
52849;DHT22;38714;53.180;5.812;2023-05-10T13:44:13;15.80;99.90
52849;DHT22;38714;53.180;5.812;2023-05-10T13:46:42;15.80;99.90
52849;DHT22;38714;53.180;5.812;2023-05-10T13:49:09;15.80;99.90
52849;DHT22;38714;53.180;5.812;2023-05-10T13:51:35;15.80;99.90
52849;DHT22;38714;53.180;5.812;2023-05-10T13:54:04;15.80;99.90
52849;DHT22;38714;53.180;5.812;2023-05-10T13:56:30;15.80;99.90
52849;DHT22;38714;53.180;5.812;2023-05-10T13:58:56;15.80;99.90
52849;DHT22;38714;53.180;5.812;2023-05-10T14:01:22;15.90;99.90
52849;DHT22;38714;53.180;5.812;2023-05-10T14:03:48;15.90;99.90
52849;DHT22;38714;53.180;5.812;2023-05-10T14:06:14;15.90;99.90
52849;DHT22;38714;53.180;5.812;2023-05-10T14:08:39;15.90;99.90
52849;DHT22;38714;53.180;5.812;2023-05-10T14:11:05;15.90;99.90
52849;DHT22;38714;53.180;5.812;2023-05-10T14:13:31;16.00;99.90
52849;DHT22;38714;53.180;5.812;2023-05-10T14:15:56;16.00;99.90
52849;DHT22;38714;53.180;5.812;2023-05-10T14:18:22;16.00;99.90
52849;DHT22;38714;53.180;5.812;2023-05-10T14:20:48;16.00;99.90
52849;DHT22;38714;53.180;5.812;2023-05-10T14:23:14;16.00;99.90
52849;DHT22;38714;53.180;5.812;2023-05-10T14:25:40;16.00;99.90
52849;DHT22;38714;53.180;5.812;2023-05-10T14:28:06;16.00;99.90
52849;DHT22;38714;53.180;5.812;2023-05-10T14:30:32;16.00;99.90
52849;DHT22;38714;53.180;5.812;2023-05-10T14:33:00;16.10;99.90
52849;DHT22;38714;53.180;5.812;2023-05-10T14:35:27;16.20;99.90
52849;DHT22;38714;53.180;5.812;2023-05-10T14:37:52;16.20;99.90
52849;DHT22;38714;53.180;5.812;2023-05-10T14:40:18;16.20;99.90
52849;DHT22;38714;53.180;5.812;2023-05-10T14:42:44;16.10;99.90
52849;DHT22;38714;53.180;5.812;2023-05-10T14:45:10;16.10;99.90
52849;DHT22;38714;53.180;5.812;2023-05-10T14:47:36;16.10;99.90
52849;DHT22;38714;53.180;5.812;2023-05-10T14:50:01;16.10;99.90
52849;DHT22;38714;53.180;5.812;2023-05-10T14:52:27;16.10;99.90
52849;DHT22;38714;53.180;5.812;2023-05-10T14:54:53;16.10;99.90
52849;DHT22;38714;53.180;5.812;2023-05-10T14:57:19;16.10;99.90
52849;DHT22;38714;53.180;5.812;2023-05-10T14:59:44;16.20;99.90
52849;DHT22;38714;53.180;5.812;2023-05-10T15:02:10;16.10;99.90
52849;DHT22;38714;53.180;5.812;2023-05-10T15:04:36;16.10;99.90
52849;DHT22;38714;53.180;5.812;2023-05-10T15:07:01;16.00;99.90
52849;DHT22;38714;53.180;5.812;2023-05-10T15:09:27;16.00;99.90
52849;DHT22;38714;53.180;5.812;2023-05-10T15:11:53;16.00;99.90
52849;DHT22;38714;53.180;5.812;2023-05-10T15:14:19;16.00;99.90
52849;DHT22;38714;53.180;5.812;2023-05-10T15:16:44;16.00;99.90
52849;DHT22;38714;53.180;5.812;2023-05-10T15:19:10;16.00;99.90
52849;DHT22;38714;53.180;5.812;2023-05-10T15:21:35;16.00;99.90
52849;DHT22;38714;53.180;5.812;2023-05-10T15:24:07;15.90;99.90
52849;DHT22;38714;53.180;5.812;2023-05-10T15:26:33;15.80;99.90
52849;DHT22;38714;53.180;5.812;2023-05-10T15:28:59;15.80;99.90
52849;DHT22;38714;53.180;5.812;2023-05-10T15:31:24;15.70;99.90
52849;DHT22;38714;53.180;5.812;2023-05-10T15:33:50;15.70;99.90
52849;DHT22;38714;53.180;5.812;2023-05-10T15:36:16;15.70;99.90
52849;DHT22;38714;53.180;5.812;2023-05-10T15:38:43;15.60;99.90
52849;DHT22;38714;53.180;5.812;2023-05-10T15:41:09;15.60;99.90
52849;DHT22;38714;53.180;5.812;2023-05-10T15:43:34;15.60;99.90
52849;DHT22;38714;53.180;5.812;2023-05-10T15:46:00;15.60;99.90
52849;DHT22;38714;53.180;5.812;2023-05-10T15:48:26;15.50;99.90
52849;DHT22;38714;53.180;5.812;2023-05-10T15:50:52;15.50;99.90
52849;DHT22;38714;53.180;5.812;2023-05-10T15:53:18;15.40;99.90
52849;DHT22;38714;53.180;5.812;2023-05-10T15:55:43;15.50;99.90
52849;DHT22;38714;53.180;5.812;2023-05-10T15:58:09;15.50;99.90
52849;DHT22;38714;53.180;5.812;2023-05-10T16:00:35;15.50;99.90
52849;DHT22;38714;53.180;5.812;2023-05-10T16:03:01;15.50;99.90
52849;DHT22;38714;53.180;5.812;2023-05-10T16:05:26;15.60;99.90
52849;DHT22;38714;53.180;5.812;2023-05-10T16:07:56;15.60;99.90
52849;DHT22;38714;53.180;5.812;2023-05-10T16:10:21;15.60;99.90